createdAt,value
2022-08-11T00:00:48.794Z,58.20
2022-08-11T00:01:48.766Z,66.76
2022-08-11T00:02:48.829Z,71.40
2022-08-11T00:03:48.752Z,70.57
2022-08-11T00:04:48.781Z,70.50
2022-08-11T00:05:48.736Z,61.54
2022-08-11T00:06:48.724Z,61.63
2022-08-11T00:07:48.722Z,60.61
2022-08-11T00:08:48.713Z,60.36
2022-08-11T00:09:48.690Z,62.44
2022-08-11T00:10:49.726Z,60.86
2022-08-11T00:11:48.686Z,59.58
2022-08-11T00:12:48.672Z,59.02
2022-08-11T00:13:48.670Z,58.97
2022-08-11T00:14:48.665Z,58.16
2022-08-11T00:15:48.809Z,63.10
2022-08-11T00:16:48.636Z,57.66
2022-08-11T00:17:49.633Z,57.38
2022-08-11T00:18:48.629Z,57.38
2022-08-11T00:20:15.099Z,63.61
2022-08-11T00:20:49.642Z,59.73
2022-08-11T00:22:03.003Z,60.30
2022-08-11T00:22:49.591Z,60.71
2022-08-11T00:23:48.586Z,65.60
2022-08-11T00:24:53.523Z,63.40
2022-08-11T00:25:49.602Z,61.59
2022-08-11T00:26:48.565Z,57.60
2022-08-11T00:27:48.554Z,57.40
2022-08-11T00:28:48.548Z,61.13
2022-08-11T00:29:51.863Z,58.87
2022-08-11T00:30:49.557Z,57.86
2022-08-11T00:31:48.532Z,57.56
2022-08-11T00:32:48.514Z,58.60
2022-08-11T00:33:48.494Z,61.99
2022-08-11T00:34:48.495Z,68.67
2022-08-11T00:35:54.183Z,59.55
2022-08-11T00:36:49.479Z,58.29
2022-08-11T00:37:48.467Z,58.37
2022-08-11T00:38:48.451Z,63.99
2022-08-11T00:39:48.500Z,62.63
2022-08-11T00:40:48.465Z,64.05
2022-08-11T00:41:48.432Z,62.07
2022-08-11T00:42:49.412Z,59.44
2022-08-11T00:43:48.419Z,65.47
2022-08-11T00:44:48.409Z,65.52
2022-08-11T00:45:48.430Z,68.39
2022-08-11T00:46:48.388Z,61.32
2022-08-11T00:47:48.394Z,61.74
2022-08-11T00:48:48.373Z,61.96
2022-08-11T00:49:48.364Z,68.24
2022-08-11T00:50:48.395Z,59.45
2022-08-11T00:52:02.389Z,63.04
2022-08-11T00:52:49.346Z,71.38
2022-08-11T00:53:48.331Z,71.73
2022-08-11T00:54:48.321Z,71.10
2022-08-11T00:55:55.909Z,72.14
2022-08-11T00:56:49.306Z,71.96
2022-08-11T00:57:48.287Z,70.82
2022-08-11T00:58:50.677Z,70.33
2022-08-11T00:59:48.283Z,71.88
2022-08-11T01:00:48.343Z,70.43
2022-08-11T01:01:48.258Z,70.31
2022-08-11T01:02:48.258Z,70.64
2022-08-11T01:03:48.241Z,71.01
2022-08-11T01:04:50.225Z,70.62
2022-08-11T01:05:49.274Z,70.80
2022-08-11T01:06:48.224Z,61.82
2022-08-11T01:08:01.979Z,59.50
2022-08-11T01:08:49.205Z,65.06
2022-08-11T01:09:48.187Z,71.75
2022-08-11T01:10:48.212Z,71.50
2022-08-11T01:11:55.263Z,71.28
2022-08-11T01:12:49.167Z,71.61
2022-08-11T01:13:48.156Z,70.87
2022-08-11T01:14:48.148Z,71.32
2022-08-11T01:15:56.086Z,70.36
2022-08-11T01:16:49.167Z,72.25
2022-08-11T01:17:48.127Z,70.37
2022-08-11T01:18:48.113Z,71.03
2022-08-11T01:20:45.476Z,70.72
2022-08-11T01:20:49.133Z,70.69
2022-08-11T01:21:49.092Z,70.57
2022-08-11T01:22:48.083Z,70.93
2022-08-11T01:23:48.078Z,70.75
2022-08-11T01:24:48.066Z,72.42
2022-08-11T01:25:56.980Z,65.14
2022-08-11T01:26:49.041Z,55.49
2022-08-11T01:27:48.042Z,61.26
2022-08-11T01:28:48.030Z,68.45
2022-08-11T01:29:49.105Z,71.33
2022-08-11T01:30:48.048Z,71.04
2022-08-11T01:31:48.006Z,70.80
2022-08-11T01:32:47.994Z,71.18
2022-08-11T01:33:47.990Z,71.00
2022-08-11T01:34:47.984Z,71.52
2022-08-11T01:35:48.005Z,71.58
2022-08-11T01:36:47.983Z,70.77
2022-08-11T01:37:48.958Z,70.37
2022-08-11T01:38:47.952Z,71.32
2022-08-11T01:39:48.004Z,70.66
2022-08-11T01:40:47.972Z,70.63
2022-08-11T01:41:47.923Z,70.38
2022-08-11T01:42:47.912Z,70.42
2022-08-11T01:43:47.907Z,70.83
2022-08-11T01:44:47.905Z,71.61
2022-08-11T01:45:47.933Z,71.29
2022-08-11T01:46:47.882Z,72.59
2022-08-11T01:47:52.568Z,71.54
2022-08-11T01:48:49.876Z,71.25
2022-08-11T01:50:06.828Z,72.32
2022-08-11T01:50:48.892Z,71.06
2022-08-11T01:51:47.854Z,71.20
2022-08-11T01:52:47.839Z,71.04
2022-08-11T01:53:47.851Z,71.05
2022-08-11T01:54:47.813Z,72.29
2022-08-11T01:55:47.816Z,70.72
2022-08-11T01:56:47.831Z,71.14
2022-08-11T01:57:47.791Z,70.48
2022-08-11T01:58:47.787Z,70.57
2022-08-11T01:59:47.775Z,70.85
2022-08-11T02:00:47.779Z,72.21
2022-08-11T02:01:47.794Z,70.21
2022-08-11T02:02:47.840Z,71.67
2022-08-11T02:03:47.739Z,70.75
2022-08-11T02:04:47.737Z,71.02
2022-08-11T02:05:47.721Z,71.22
2022-08-11T02:06:47.748Z,70.82
2022-08-11T02:07:47.713Z,71.62
2022-08-11T02:08:50.435Z,70.86
2022-08-11T02:09:49.976Z,66.39
2022-08-11T02:10:50.711Z,63.70
2022-08-11T02:11:47.706Z,62.25
2022-08-11T02:12:52.539Z,55.78
2022-08-11T02:13:48.879Z,61.33
2022-08-11T02:14:57.263Z,55.68
2022-08-11T02:15:48.660Z,56.21
2022-08-11T02:16:47.672Z,70.33
2022-08-11T02:17:47.631Z,76.42
2022-08-11T02:18:47.618Z,74.35
2022-08-11T02:19:47.617Z,64.40
2022-08-11T02:20:47.607Z,60.03
2022-08-11T02:22:02.312Z,62.60
2022-08-11T02:22:47.597Z,64.39
2022-08-11T02:24:05.579Z,60.97
2022-08-11T02:24:48.569Z,62.53
2022-08-11T02:25:47.569Z,62.13
2022-08-11T02:26:47.592Z,65.87
2022-08-11T02:27:47.546Z,59.02
2022-08-11T02:28:47.544Z,56.03
2022-08-11T02:29:47.533Z,60.32
2022-08-11T02:30:47.529Z,58.98
2022-08-11T02:32:23.748Z,57.19
2022-08-11T02:32:48.508Z,57.77
2022-08-11T02:33:47.505Z,58.27
2022-08-11T02:35:00.045Z,62.65
2022-08-11T02:35:48.486Z,59.92
2022-08-11T02:36:47.515Z,60.80
2022-08-11T02:38:30.307Z,60.59
2022-08-11T02:38:47.460Z,69.05
2022-08-11T02:39:47.513Z,62.94
2022-08-11T02:40:47.448Z,59.31
2022-08-11T02:41:47.459Z,62.17
2022-08-11T02:42:47.927Z,66.45
2022-08-11T02:43:50.846Z,61.44
2022-08-11T02:44:47.407Z,60.70
2022-08-11T02:45:47.411Z,61.29
2022-08-11T02:46:47.436Z,61.60
2022-08-11T02:48:41.815Z,59.93
2022-08-11T02:48:47.374Z,73.67
2022-08-11T02:49:47.355Z,64.82
2022-08-11T02:50:55.944Z,65.80
2022-08-11T02:51:47.389Z,67.56
2022-08-11T02:52:47.345Z,61.65
2022-08-11T02:53:48.558Z,69.83
2022-08-11T02:54:48.332Z,65.87
2022-08-11T02:55:57.289Z,59.26
2022-08-11T02:56:48.347Z,64.54
2022-08-11T02:57:47.303Z,68.34
2022-08-11T02:58:47.294Z,61.34
2022-08-11T02:59:47.285Z,62.82
2022-08-11T03:00:47.278Z,60.53
2022-08-11T03:01:47.310Z,61.11
2022-08-11T03:02:47.285Z,63.42
2022-08-11T03:03:47.277Z,61.55
2022-08-11T03:04:47.250Z,62.94
2022-08-11T03:05:47.257Z,65.65
2022-08-11T03:06:47.259Z,66.27
2022-08-11T03:07:47.221Z,66.02
2022-08-11T03:08:47.211Z,66.91
2022-08-11T03:09:47.211Z,65.33
2022-08-11T03:10:47.193Z,63.72
2022-08-11T03:11:47.219Z,64.83
2022-08-11T03:12:50.350Z,64.65
2022-08-11T03:13:49.174Z,71.69
2022-08-11T03:14:47.167Z,71.34
2022-08-11T03:15:47.170Z,71.94
2022-08-11T03:16:47.176Z,70.43
2022-08-11T03:17:47.140Z,73.03
2022-08-11T03:18:47.135Z,73.00
2022-08-11T03:19:47.125Z,70.83
2022-08-11T03:20:47.119Z,66.83
2022-08-11T03:22:03.031Z,69.11
2022-08-11T03:22:48.096Z,69.97
2022-08-11T03:23:47.086Z,64.42
2022-08-11T03:24:47.080Z,71.47
2022-08-11T03:25:47.077Z,72.33
2022-08-11T03:26:47.097Z,71.85
2022-08-11T03:27:47.063Z,73.41
2022-08-11T03:28:47.051Z,72.81
2022-08-11T03:29:47.036Z,68.71
2022-08-11T03:30:47.028Z,66.82
2022-08-11T03:31:47.051Z,67.09
2022-08-11T03:32:47.009Z,67.24
2022-08-11T03:33:47.004Z,69.90
2022-08-11T03:34:46.994Z,71.48
2022-08-11T03:35:46.987Z,71.95
2022-08-11T03:36:55.761Z,72.60
2022-08-11T03:37:47.959Z,72.26
2022-08-11T03:38:46.963Z,74.88
2022-08-11T03:39:51.141Z,71.22
2022-08-11T03:40:47.934Z,70.53
2022-08-11T03:42:03.406Z,69.46
2022-08-11T03:42:47.921Z,65.06
2022-08-11T03:43:58.115Z,67.62
2022-08-11T03:44:47.917Z,73.27
2022-08-11T03:45:46.899Z,72.67
2022-08-11T03:46:46.918Z,72.86
2022-08-11T03:47:52.655Z,68.69
2022-08-11T03:48:47.874Z,68.62
2022-08-11T03:49:46.869Z,73.85
2022-08-11T03:50:47.721Z,73.68
2022-08-11T03:51:51.730Z,72.52
2022-08-11T03:52:47.847Z,73.04
2022-08-11T03:53:46.838Z,71.61
2022-08-11T03:54:46.830Z,68.53
2022-08-11T03:55:46.816Z,68.18
2022-08-11T03:56:46.859Z,67.02
2022-08-11T03:57:46.810Z,74.03
2022-08-11T03:58:46.798Z,72.43
2022-08-11T03:59:46.777Z,72.21
2022-08-11T04:00:46.777Z,72.41
2022-08-11T04:01:46.885Z,72.35
2022-08-11T04:02:46.759Z,67.75
2022-08-11T04:03:46.750Z,62.02
2022-08-11T04:04:50.578Z,72.99
2022-08-11T04:05:46.733Z,73.71
2022-08-11T04:06:46.758Z,73.25
2022-08-11T04:07:46.714Z,73.37
2022-08-11T04:08:46.707Z,71.62
2022-08-11T04:09:46.794Z,71.85
2022-08-11T04:10:46.700Z,66.31
2022-08-11T04:11:46.717Z,68.28
2022-08-11T04:12:47.906Z,73.91
2022-08-11T04:13:47.661Z,71.92
2022-08-11T04:14:46.671Z,72.75
2022-08-11T04:15:46.669Z,77.22
2022-08-11T04:16:46.636Z,73.03
2022-08-11T04:17:46.657Z,74.33
2022-08-11T04:18:46.628Z,68.05
2022-08-11T04:19:46.613Z,70.68
2022-08-11T04:20:47.611Z,71.73
2022-08-11T04:21:46.611Z,73.35
2022-08-11T04:22:46.635Z,73.84
2022-08-11T04:24:37.229Z,72.34
2022-08-11T04:24:50.478Z,72.98
2022-08-11T04:25:58.042Z,72.41
2022-08-11T04:26:47.562Z,71.57
2022-08-11T04:27:47.729Z,70.53
2022-08-11T04:28:50.183Z,70.51
2022-08-11T04:30:01.947Z,73.40
2022-08-11T04:30:47.530Z,72.70
2022-08-11T04:31:51.447Z,72.96
2022-08-11T04:32:47.535Z,72.78
2022-08-11T04:33:46.498Z,75.19
2022-08-11T04:34:46.512Z,68.24
2022-08-11T04:35:50.901Z,71.11
2022-08-11T04:36:47.481Z,71.77
2022-08-11T04:37:53.282Z,72.31
2022-08-11T04:38:47.460Z,73.72
2022-08-11T04:39:46.494Z,71.75
2022-08-11T04:40:46.446Z,69.99
2022-08-11T04:41:46.437Z,66.52
2022-08-11T04:42:46.460Z,73.41
2022-08-11T04:44:06.009Z,73.36
2022-08-11T04:44:48.416Z,72.76
2022-08-11T04:45:46.429Z,72.78
2022-08-11T04:46:46.391Z,72.76
2022-08-11T04:48:04.278Z,72.11
2022-08-11T04:48:47.375Z,70.59
2022-08-11T04:49:46.364Z,69.41
2022-08-11T04:51:00.792Z,68.65
2022-08-11T04:51:47.339Z,73.61
2022-08-11T04:52:46.371Z,73.31
2022-08-11T04:53:46.341Z,73.12
2022-08-11T04:54:47.331Z,72.83
2022-08-11T04:55:46.318Z,74.65
2022-08-11T04:56:46.314Z,72.66
2022-08-11T04:57:46.330Z,70.82
2022-08-11T04:58:46.286Z,68.72
2022-08-11T04:59:46.300Z,66.35
2022-08-11T05:00:46.268Z,68.64
2022-08-11T05:01:46.322Z,73.27
2022-08-11T05:02:46.280Z,72.90
2022-08-11T05:03:46.248Z,71.49
2022-08-11T05:04:46.242Z,65.23
2022-08-11T05:05:54.653Z,72.50
2022-08-11T05:06:47.228Z,71.14
2022-08-11T05:07:46.248Z,72.64
2022-08-11T05:08:46.206Z,71.21
2022-08-11T05:09:46.185Z,68.98
2022-08-11T05:10:47.197Z,71.65
2022-08-11T05:11:46.187Z,68.78
2022-08-11T05:12:46.207Z,70.68
2022-08-11T05:13:46.172Z,71.36
2022-08-11T05:14:46.164Z,71.84
2022-08-11T05:15:50.920Z,71.69
2022-08-11T05:16:48.166Z,74.63
2022-08-11T05:17:46.146Z,72.81
2022-08-11T05:18:46.122Z,68.68
2022-08-11T05:19:46.113Z,68.40
2022-08-11T05:21:07.394Z,65.83
2022-08-11T05:21:46.127Z,62.89
2022-08-11T05:22:46.087Z,70.60
2022-08-11T05:23:46.073Z,71.82
2022-08-11T05:24:46.074Z,71.15
2022-08-11T05:26:45.066Z,73.26
2022-08-11T05:26:49.656Z,71.21
2022-08-11T05:27:47.039Z,71.07
2022-08-11T05:28:46.255Z,66.60
2022-08-11T05:29:46.028Z,66.75
2022-08-11T05:30:46.016Z,69.71
2022-08-11T05:31:46.042Z,71.33
2022-08-11T05:32:45.998Z,72.42
2022-08-11T05:33:45.987Z,72.35
2022-08-11T05:34:45.981Z,68.84
2022-08-11T05:36:00.240Z,68.07
2022-08-11T05:36:47.004Z,65.36
2022-08-11T05:37:45.959Z,64.06
2022-08-11T05:38:45.948Z,66.93
2022-08-11T05:39:45.978Z,71.22
2022-08-11T05:40:51.272Z,65.97
2022-08-11T05:41:47.291Z,67.42
2022-08-11T05:42:45.911Z,69.39
2022-08-11T05:44:20.005Z,70.87
2022-08-11T05:44:46.897Z,65.24
2022-08-11T05:46:03.956Z,66.82
2022-08-11T05:46:46.916Z,67.93
2022-08-11T05:47:45.875Z,65.82
2022-08-11T05:48:45.871Z,68.80
2022-08-11T05:49:45.857Z,66.38
2022-08-11T05:50:45.849Z,67.19
2022-08-11T05:51:54.612Z,67.26
2022-08-11T05:52:49.250Z,68.17
2022-08-11T05:53:46.823Z,67.83
2022-08-11T05:54:45.861Z,65.99
2022-08-11T05:56:02.108Z,67.90
2022-08-11T05:56:46.801Z,69.78
2022-08-11T05:57:51.505Z,68.75
2022-08-11T05:58:46.794Z,64.72
2022-08-11T05:59:45.787Z,66.52
2022-08-11T06:00:45.786Z,67.75
2022-08-11T06:01:45.851Z,65.76
2022-08-11T06:02:45.794Z,66.80
2022-08-11T06:03:58.685Z,69.25
2022-08-11T06:04:46.746Z,67.83
2022-08-11T06:05:45.741Z,66.91
2022-08-11T06:06:47.124Z,66.26
2022-08-11T06:07:48.640Z,68.22
2022-08-11T06:08:45.717Z,64.76
2022-08-11T06:09:45.715Z,66.73
2022-08-11T06:10:45.732Z,67.12
2022-08-11T06:11:45.702Z,67.00
2022-08-11T06:12:45.729Z,65.81
2022-08-11T06:13:45.671Z,66.49
2022-08-11T06:14:45.662Z,64.64
2022-08-11T06:15:45.673Z,65.78
2022-08-11T06:16:45.667Z,66.56
2022-08-11T06:17:45.676Z,64.84
2022-08-11T06:18:45.634Z,66.18
2022-08-11T06:19:45.640Z,62.09
2022-08-11T06:20:45.625Z,66.88
2022-08-11T06:21:45.629Z,69.71
2022-08-11T06:22:48.564Z,68.73
2022-08-11T06:23:46.639Z,65.23
2022-08-11T06:24:45.594Z,68.75
2022-08-11T06:25:45.577Z,61.34
2022-08-11T06:27:09.038Z,66.14
2022-08-11T06:27:47.591Z,69.53
2022-08-11T06:28:45.559Z,63.07
2022-08-11T06:29:48.078Z,66.02
2022-08-11T06:30:45.542Z,65.83
2022-08-11T06:31:45.530Z,68.27
2022-08-11T06:32:45.546Z,69.58
2022-08-11T06:33:45.511Z,67.08
2022-08-11T06:34:45.504Z,68.60
2022-08-11T06:35:45.494Z,67.33
2022-08-11T06:36:45.485Z,64.38
2022-08-11T06:37:45.522Z,65.99
2022-08-11T06:38:45.467Z,65.42
2022-08-11T06:39:45.470Z,69.04
2022-08-11T06:40:45.451Z,65.23
2022-08-11T06:41:45.448Z,63.86
2022-08-11T06:42:45.475Z,69.10
2022-08-11T06:43:51.020Z,67.50
2022-08-11T06:44:46.432Z,65.50
2022-08-11T06:45:45.435Z,66.96
2022-08-11T06:46:52.964Z,61.64
2022-08-11T06:47:45.444Z,63.01
2022-08-11T06:48:45.390Z,67.48
2022-08-11T06:49:45.394Z,66.00
2022-08-11T06:50:45.370Z,64.42
2022-08-11T06:51:46.366Z,65.06
2022-08-11T06:52:45.484Z,64.66
2022-08-11T06:54:03.409Z,66.98
2022-08-11T06:54:46.354Z,63.93
2022-08-11T06:55:56.815Z,60.78
2022-08-11T06:56:46.334Z,68.97
2022-08-11T06:57:45.327Z,67.21
2022-08-11T06:58:45.341Z,65.32
2022-08-11T06:59:45.310Z,65.70
2022-08-11T07:00:45.302Z,67.85
2022-08-11T07:01:46.242Z,65.84
2022-08-11T07:02:45.285Z,62.40
2022-08-11T07:03:45.313Z,64.05
2022-08-11T07:04:45.280Z,62.42
2022-08-11T07:05:45.266Z,64.96
2022-08-11T07:06:50.607Z,68.45
2022-08-11T07:07:46.239Z,61.30
2022-08-11T07:08:45.260Z,66.85
2022-08-11T07:09:45.232Z,67.13
2022-08-11T07:10:45.230Z,63.83
2022-08-11T07:11:45.211Z,67.72
2022-08-11T07:12:45.207Z,64.27
2022-08-11T07:13:45.973Z,65.70
2022-08-11T07:14:46.189Z,67.06
2022-08-11T07:16:10.585Z,65.20
2022-08-11T07:16:46.210Z,64.03
2022-08-11T07:17:45.338Z,65.71
2022-08-11T07:18:45.188Z,63.52
2022-08-11T07:19:45.175Z,66.49
2022-08-11T07:20:45.148Z,70.66
2022-08-11T07:22:02.615Z,61.37
2022-08-11T07:22:46.132Z,65.24
2022-08-11T07:23:45.177Z,68.82
2022-08-11T07:24:59.793Z,67.99
2022-08-11T07:25:46.099Z,66.12
2022-08-11T07:26:45.151Z,65.26
2022-08-11T07:27:53.721Z,65.79
2022-08-11T07:28:46.113Z,66.96
2022-08-11T07:29:45.105Z,64.36
2022-08-11T07:30:45.071Z,64.05
2022-08-11T07:31:45.086Z,66.57
2022-08-11T07:32:45.049Z,67.55
2022-08-11T07:34:05.919Z,65.95
2022-08-11T07:34:46.045Z,68.93
2022-08-11T07:35:45.037Z,62.69
2022-08-11T07:36:45.024Z,65.92
2022-08-11T07:37:45.183Z,65.85
2022-08-11T07:38:46.000Z,67.03
2022-08-11T07:39:45.058Z,66.59
2022-08-11T07:40:44.998Z,64.53
2022-08-11T07:41:45.014Z,63.90
2022-08-11T07:42:44.997Z,66.01
2022-08-11T07:43:45.001Z,69.84
2022-08-11T07:44:45.096Z,67.31
2022-08-11T07:45:44.991Z,65.60
2022-08-11T07:46:44.950Z,67.16
2022-08-11T07:47:44.963Z,66.88
2022-08-11T07:48:44.988Z,66.13
2022-08-11T07:49:44.933Z,65.60
2022-08-11T07:50:44.925Z,64.36
2022-08-11T07:51:44.928Z,68.45
2022-08-11T07:52:44.933Z,65.04
2022-08-11T07:53:58.681Z,65.17
2022-08-11T07:54:51.126Z,64.39
2022-08-11T07:55:50.873Z,68.03
2022-08-11T07:58:00.180Z,63.03
2022-08-11T07:58:14.251Z,63.57
2022-08-11T07:58:52.285Z,61.71
2022-08-11T07:59:58.536Z,63.69
2022-08-11T08:00:47.034Z,65.28
2022-08-11T08:01:46.033Z,66.54
2022-08-11T08:02:44.857Z,65.69
2022-08-11T08:03:54.817Z,66.70
2022-08-11T08:04:47.467Z,62.67
2022-08-11T08:05:45.813Z,65.19
2022-08-11T08:06:44.819Z,63.55
2022-08-11T08:07:45.351Z,67.68
2022-08-11T08:08:44.818Z,67.87
2022-08-11T08:09:44.855Z,66.99
2022-08-11T08:10:44.773Z,64.22
2022-08-11T08:11:44.776Z,68.34
2022-08-11T08:12:44.783Z,65.13
2022-08-11T08:13:44.799Z,64.05
2022-08-11T08:14:44.836Z,63.47
2022-08-11T08:15:44.774Z,67.13
2022-08-11T08:16:44.769Z,67.73
2022-08-11T08:17:44.762Z,64.36
2022-08-11T08:18:45.737Z,64.82
2022-08-11T08:19:44.778Z,66.58
2022-08-11T08:20:44.729Z,64.88
2022-08-11T08:21:45.359Z,66.06
2022-08-11T08:22:48.276Z,62.88
2022-08-11T08:23:45.683Z,67.17
2022-08-11T08:24:44.715Z,61.41
2022-08-11T08:25:44.677Z,64.66
2022-08-11T08:26:51.662Z,67.13
2022-08-11T08:27:45.661Z,66.44
2022-08-11T08:28:44.651Z,66.84
2022-08-11T08:30:14.400Z,63.63
2022-08-11T08:30:44.648Z,66.14
2022-08-11T08:31:44.649Z,66.07
2022-08-11T08:32:45.370Z,62.71
2022-08-11T08:33:45.372Z,66.55
2022-08-11T08:34:44.645Z,63.53
2022-08-11T08:36:09.012Z,65.09
2022-08-11T08:36:45.607Z,64.46
2022-08-11T08:37:47.706Z,64.99
2022-08-11T08:39:30.913Z,68.93
2022-08-11T08:39:45.641Z,67.32
2022-08-11T08:40:45.581Z,64.83
2022-08-11T08:41:44.570Z,67.87
2022-08-11T08:42:45.511Z,68.31
2022-08-11T08:43:48.463Z,66.01
2022-08-11T08:44:45.079Z,67.27
2022-08-11T08:45:45.539Z,64.61
2022-08-11T08:46:44.535Z,63.84
2022-08-11T08:47:44.520Z,65.70
2022-08-11T08:48:44.515Z,65.42
2022-08-11T08:49:46.526Z,67.26
2022-08-11T08:50:46.840Z,66.59
2022-08-11T08:52:01.751Z,65.57
2022-08-11T08:52:45.681Z,65.38
2022-08-11T08:53:52.395Z,64.42
2022-08-11T08:54:45.508Z,63.68
2022-08-11T08:55:45.628Z,66.90
2022-08-11T08:56:45.473Z,67.03
2022-08-11T08:57:44.462Z,61.65
2022-08-11T08:58:44.460Z,62.94
2022-08-11T08:59:48.879Z,64.99
2022-08-11T09:00:45.433Z,65.80
2022-08-11T09:01:44.498Z,66.25
2022-08-11T09:02:45.579Z,65.56
2022-08-11T09:04:04.737Z,64.09
2022-08-11T09:04:45.491Z,66.85
2022-08-11T09:05:44.402Z,67.18
2022-08-11T09:06:44.389Z,63.07
2022-08-11T09:07:45.523Z,66.74
2022-08-11T09:08:44.377Z,68.54
2022-08-11T09:09:44.399Z,63.81
2022-08-11T09:10:44.372Z,60.12
2022-08-11T09:11:44.366Z,64.45
2022-08-11T09:12:44.362Z,64.38
2022-08-11T09:13:44.516Z,62.76
2022-08-11T09:14:44.382Z,66.98
2022-08-11T09:15:44.330Z,65.61
2022-08-11T09:16:44.366Z,64.64
2022-08-11T09:17:44.323Z,63.81
2022-08-11T09:18:44.324Z,62.07
2022-08-11T09:19:44.345Z,67.70
2022-08-11T09:20:45.306Z,66.86
2022-08-11T09:21:49.421Z,70.04
2022-08-11T09:22:45.299Z,67.66
2022-08-11T09:24:46.303Z,62.66
2022-08-11T09:25:44.268Z,68.14
2022-08-11T09:26:44.265Z,65.91
2022-08-11T09:27:50.561Z,66.96
2022-08-11T09:28:45.265Z,60.90
2022-08-11T09:29:44.279Z,64.89
2022-08-11T09:30:44.240Z,64.34
2022-08-11T09:31:44.236Z,58.72
2022-08-11T09:32:44.224Z,62.89
2022-08-11T09:33:44.210Z,65.02
2022-08-11T09:34:44.234Z,69.08
2022-08-11T09:35:44.209Z,62.65
2022-08-11T09:36:44.211Z,65.62
2022-08-11T09:37:55.517Z,63.62
2022-08-11T09:38:49.402Z,64.95
2022-08-11T09:39:45.258Z,65.16
2022-08-11T09:40:44.187Z,64.40
2022-08-11T09:42:00.945Z,61.11
2022-08-11T09:42:45.169Z,67.72
2022-08-11T09:43:44.161Z,68.05
2022-08-11T09:44:44.189Z,62.27
2022-08-11T09:45:44.139Z,66.01
2022-08-11T09:46:58.920Z,57.66
2022-08-11T09:47:44.137Z,64.72
2022-08-11T09:48:44.122Z,67.40
2022-08-11T09:49:44.152Z,62.42
2022-08-11T09:50:44.109Z,67.51
2022-08-11T09:51:56.660Z,67.38
2022-08-11T09:53:16.559Z,63.67
2022-08-11T09:54:02.637Z,67.09
2022-08-11T09:54:48.092Z,67.13
2022-08-11T09:55:44.089Z,68.40
2022-08-11T09:57:05.191Z,65.62
2022-08-11T09:57:45.082Z,64.71
2022-08-11T09:58:44.127Z,64.47
2022-08-11T09:59:44.064Z,64.92
2022-08-11T10:00:44.086Z,64.41
2022-08-11T10:01:44.095Z,66.24
2022-08-11T10:02:44.047Z,62.15
2022-08-11T10:03:44.021Z,65.15
2022-08-11T10:04:44.116Z,66.62
2022-08-11T10:05:44.040Z,65.36
2022-08-11T10:06:44.000Z,65.82
2022-08-11T10:07:43.999Z,62.79
2022-08-11T10:08:43.996Z,66.12
2022-08-11T10:09:43.998Z,66.89
2022-08-11T10:10:44.012Z,68.44
2022-08-11T10:11:43.975Z,62.09
2022-08-11T10:12:44.957Z,64.98
2022-08-11T10:14:34.042Z,62.39
2022-08-11T10:14:45.081Z,63.98
2022-08-11T10:16:00.194Z,66.96
2022-08-11T10:16:44.931Z,66.49
2022-08-11T10:17:43.946Z,63.49
2022-08-11T10:18:43.918Z,63.78
2022-08-11T10:19:43.920Z,65.61
2022-08-11T10:20:43.952Z,62.16
2022-08-11T10:21:43.913Z,64.34
2022-08-11T10:22:43.910Z,58.92
2022-08-11T10:24:01.015Z,65.60
2022-08-11T10:24:44.920Z,65.31
2022-08-11T10:25:43.922Z,64.75
2022-08-11T10:26:50.556Z,65.98
2022-08-11T10:28:17.613Z,62.05
2022-08-11T10:29:49.798Z,63.34
2022-08-11T10:30:43.887Z,58.98
2022-08-11T10:31:56.697Z,65.55
2022-08-11T10:32:57.435Z,65.06
2022-08-11T10:33:57.742Z,66.72
2022-08-11T10:34:54.459Z,68.42
2022-08-11T10:35:44.863Z,65.83
2022-08-11T10:36:43.813Z,65.74
2022-08-11T10:38:15.797Z,67.00
2022-08-11T10:38:44.797Z,65.53
2022-08-11T10:39:43.879Z,58.65
2022-08-11T10:40:43.792Z,61.44
2022-08-11T10:42:08.283Z,63.41
2022-08-11T10:42:57.369Z,66.33
2022-08-11T10:44:01.450Z,68.28
2022-08-11T10:44:53.212Z,65.52
2022-08-11T10:45:43.761Z,66.55
2022-08-11T10:46:43.799Z,65.41
2022-08-11T10:47:44.283Z,67.26
2022-08-11T10:48:44.731Z,62.37
2022-08-11T10:49:43.736Z,66.66
2022-08-11T10:50:43.723Z,67.39
2022-08-11T10:51:51.568Z,64.74
2022-08-11T10:52:44.748Z,63.50
2022-08-11T10:53:43.699Z,64.60
2022-08-11T10:54:43.791Z,64.57
2022-08-11T10:55:43.699Z,67.33
2022-08-11T10:56:43.715Z,61.08
2022-08-11T10:57:43.683Z,68.17
2022-08-11T10:58:44.700Z,61.96
2022-08-11T10:59:43.662Z,59.71
2022-08-11T11:00:43.650Z,65.81
2022-08-11T11:01:43.725Z,66.15
2022-08-11T11:02:43.644Z,64.89
2022-08-11T11:03:43.642Z,66.13
2022-08-11T11:04:45.558Z,65.87
2022-08-11T11:06:27.235Z,63.65
2022-08-11T11:06:44.650Z,61.09
2022-08-11T11:07:44.824Z,67.09
2022-08-11T11:08:43.630Z,64.87
2022-08-11T11:09:43.606Z,67.01
2022-08-11T11:10:43.604Z,67.59
2022-08-11T11:11:43.614Z,63.03
2022-08-11T11:12:43.584Z,66.51
2022-08-11T11:13:53.379Z,71.78
2022-08-11T11:14:46.262Z,64.26
2022-08-11T11:15:44.589Z,68.58
2022-08-11T11:16:43.588Z,65.29
2022-08-11T11:17:43.552Z,65.15
2022-08-11T11:18:43.550Z,63.10
2022-08-11T11:19:44.977Z,65.74
2022-08-11T11:20:47.427Z,66.39
2022-08-11T11:21:44.567Z,62.41
2022-08-11T11:22:43.523Z,67.43
2022-08-11T11:23:43.513Z,67.74
2022-08-11T11:24:43.521Z,67.10
2022-08-11T11:25:43.501Z,65.72
2022-08-11T11:26:43.532Z,66.65
2022-08-11T11:27:46.324Z,63.44
2022-08-11T11:28:43.484Z,68.10
2022-08-11T11:29:43.474Z,67.94
2022-08-11T11:30:43.476Z,63.07
2022-08-11T11:31:43.496Z,66.17
2022-08-11T11:32:47.624Z,66.99
2022-08-11T11:34:06.133Z,64.63
2022-08-11T11:34:53.207Z,62.86
2022-08-11T11:35:44.452Z,67.01
2022-08-11T11:36:43.467Z,67.93
2022-08-11T11:38:04.089Z,65.61
2022-08-11T11:38:44.433Z,64.23
2022-08-11T11:39:43.446Z,67.03
2022-08-11T11:40:43.415Z,64.88
2022-08-11T11:41:43.439Z,65.99
2022-08-11T11:43:02.394Z,62.00
2022-08-11T11:43:43.400Z,63.01
2022-08-11T11:44:43.394Z,67.67
2022-08-11T11:45:43.402Z,66.98
2022-08-11T11:46:43.413Z,66.45
2022-08-11T11:47:43.365Z,67.22
2022-08-11T11:48:43.357Z,66.88
2022-08-11T11:49:43.346Z,68.14
2022-08-11T11:50:43.346Z,70.86
2022-08-11T11:51:43.396Z,65.88
2022-08-11T11:52:43.342Z,66.54
2022-08-11T11:53:43.338Z,65.89
2022-08-11T11:54:43.323Z,64.42
2022-08-11T11:55:43.319Z,68.23
2022-08-11T11:56:43.346Z,66.00
2022-08-11T11:57:58.927Z,63.19
2022-08-11T11:58:44.298Z,66.55
2022-08-11T11:59:43.282Z,66.42
2022-08-11T12:00:43.585Z,65.90
2022-08-11T12:01:44.848Z,65.55
2022-08-11T12:02:44.276Z,66.62
2022-08-11T12:03:43.294Z,68.14
2022-08-11T12:04:43.264Z,64.67
2022-08-11T12:05:43.244Z,66.20
2022-08-11T12:06:43.259Z,63.73
2022-08-11T12:07:43.233Z,64.93
2022-08-11T12:08:43.242Z,64.03
2022-08-11T12:09:43.218Z,66.20
2022-08-11T12:10:43.208Z,62.47
2022-08-11T12:12:16.190Z,69.02
2022-08-11T12:12:43.194Z,61.19
2022-08-11T12:13:43.206Z,57.32
2022-08-11T12:14:43.192Z,65.71
2022-08-11T12:16:31.664Z,64.15
2022-08-11T12:16:44.220Z,63.88
2022-08-11T12:17:43.162Z,66.82
2022-08-11T12:18:43.153Z,66.58
2022-08-11T12:19:43.245Z,66.08
2022-08-11T12:20:44.137Z,63.65
2022-08-11T12:21:43.165Z,68.84
2022-08-11T12:22:44.126Z,63.57
2022-08-11T12:23:43.113Z,64.92
2022-08-11T12:24:43.112Z,64.88
2022-08-11T12:25:43.125Z,65.37
2022-08-11T12:26:43.141Z,65.75
2022-08-11T12:27:43.094Z,65.83
2022-08-11T12:28:43.088Z,64.08
2022-08-11T12:29:43.938Z,63.57
2022-08-11T12:31:44.096Z,62.88
2022-08-11T12:32:43.068Z,67.80
2022-08-11T12:33:43.070Z,65.27
2022-08-11T12:34:43.049Z,65.91
2022-08-11T12:35:43.037Z,63.25
2022-08-11T12:36:44.054Z,61.33
2022-08-11T12:37:43.032Z,68.07
2022-08-11T12:38:43.017Z,66.45
2022-08-11T12:40:17.006Z,67.88
2022-08-11T12:41:13.691Z,65.84
2022-08-11T12:41:45.108Z,66.52
2022-08-11T12:42:42.992Z,68.72
2022-08-11T12:43:42.996Z,64.99
2022-08-11T12:44:42.983Z,70.79
2022-08-11T12:45:42.981Z,65.34
2022-08-11T12:46:43.003Z,69.75
2022-08-11T12:47:42.980Z,64.67
2022-08-11T12:48:58.721Z,67.89
2022-08-11T12:49:45.683Z,72.28
2022-08-11T12:50:43.953Z,66.14
2022-08-11T12:52:11.502Z,63.61
2022-08-11T12:52:43.936Z,65.11
2022-08-11T12:53:42.914Z,68.12
2022-08-11T12:54:42.917Z,65.23
2022-08-11T12:55:42.907Z,67.58